Time,TemperatureF,DewpointF,PressureIn,WindDirection,WindDirectionDegrees,WindSpeedMPH,WindSpeedGustMPH,Humidity,HourlyPrecipIn,Conditions,Clouds,dailyrainin,SoftwareType,DateUTC
2013-03-31 12:00:00,73.0,-99.9,30.14,SE,130,18.0,20.0,-999,-99.99,,,-99.99,,2013-03-31 16:00:00,
2013-03-31 12:23:00,73.0,-99.9,30.14,SE,130,18.0,20.0,-999,-99.99,,,-99.99,,2013-03-31 16:23:00,
2013-03-31 12:34:00,73.0,-99.9,30.14,SE,130,18.0,20.0,-999,-99.99,,,-99.99,,2013-03-31 16:34:00,
2013-03-31 12:43:00,73.0,-99.9,30.14,SE,130,18.0,20.0,-999,-99.99,,,-99.99,,2013-03-31 16:43:00,
2013-03-31 12:54:00,73.0,-99.9,30.14,SE,130,18.0,20.0,-999,-99.99,,,-99.99,,2013-03-31 16:54:00,
2013-03-31 13:00:00,73.0,-99.9,30.12,ESE,120,21.0,22.0,-999,-99.99,,,-99.99,,2013-03-31 17:00:00,
2013-03-31 13:23:00,73.0,-99.9,30.12,ESE,120,21.0,22.0,-999,-99.99,,,-99.99,,2013-03-31 17:23:00,
2013-03-31 13:33:00,73.0,-99.9,30.12,ESE,120,21.0,22.0,-999,-99.99,,,-99.99,,2013-03-31 17:33:00,
2013-03-31 13:43:00,73.0,-99.9,30.12,ESE,120,21.0,22.0,-999,-99.99,,,-99.99,,2013-03-31 17:43:00,
2013-03-31 13:53:00,73.0,-99.9,30.12,ESE,120,21.0,22.0,-999,-99.99,,,-99.99,,2013-03-31 17:53:00,
2013-03-31 14:00:00,74.0,-99.9,30.11,ESE,120,17.0,20.0,-999,-99.99,,,-99.99,,2013-03-31 18:00:00,
2013-03-31 14:22:00,74.0,-99.9,30.11,ESE,120,17.0,20.0,-999,-99.99,,,-99.99,,2013-03-31 18:22:00,
2013-03-31 14:33:00,74.0,-99.9,30.11,ESE,120,17.0,20.0,-999,-99.99,,,-99.99,,2013-03-31 18:33:00,
2013-03-31 14:43:00,74.0,-99.9,30.11,ESE,120,17.0,20.0,-999,-99.99,,,-99.99,,2013-03-31 18:43:00,
2013-03-31 14:53:00,74.0,-99.9,30.11,ESE,120,17.0,20.0,-999,-99.99,,,-99.99,,2013-03-31 18:53:00,
2013-03-31 15:00:00,74.0,-99.9,30.09,ESE,110,14.0,15.0,-999,-99.99,,,-99.99,,2013-03-31 19:00:00,
2013-03-31 15:23:00,74.0,-99.9,30.09,ESE,110,14.0,15.0,-999,-99.99,,,-99.99,,2013-03-31 19:23:00,
2013-03-31 15:33:00,74.0,-99.9,30.09,ESE,110,14.0,15.0,-999,-99.99,,,-99.99,,2013-03-31 19:33:00,
2013-03-31 15:43:00,74.0,-99.9,30.09,ESE,110,14.0,15.0,-999,-99.99,,,-99.99,,2013-03-31 19:43:00,
2013-03-31 15:54:00,74.0,-99.9,30.09,ESE,110,14.0,15.0,-999,-99.99,,,-99.99,,2013-03-31 19:54:00,
2013-03-31 16:00:00,74.0,-99.9,30.07,ESE,120,14.0,14.0,-999,-99.99,,,-99.99,,2013-03-31 20:00:00,
2013-03-31 16:23:00,74.0,-99.9,30.07,ESE,120,14.0,14.0,-999,-99.99,,,-99.99,,2013-03-31 20:23:00,
2013-03-31 16:34:00,74.0,-99.9,30.07,ESE,120,14.0,14.0,-999,-99.99,,,-99.99,,2013-03-31 20:34:00,
2013-03-31 16:44:00,74.0,-99.9,30.07,ESE,120,14.0,14.0,-999,-99.99,,,-99.99,,2013-03-31 20:44:00,
2013-03-31 16:53:00,74.0,-99.9,30.07,ESE,120,14.0,14.0,-999,-99.99,,,-99.99,,2013-03-31 20:53:00,
2013-03-31 17:00:00,75.0,-99.9,30.06,ESE,110,13.0,14.0,-999,-99.99,,,-99.99,,2013-03-31 21:00:00,
2013-03-31 17:23:00,75.0,-99.9,30.06,ESE,110,13.0,14.0,-999,-99.99,,,-99.99,,2013-03-31 21:23:00,
2013-03-31 17:34:00,75.0,-99.9,30.06,ESE,110,13.0,14.0,-999,-99.99,,,-99.99,,2013-03-31 21:34:00,
2013-03-31 17:44:00,75.0,-99.9,30.06,ESE,110,13.0,14.0,-999,-99.99,,,-99.99,,2013-03-31 21:44:00,
2013-03-31 17:54:00,75.0,-99.9,30.06,ESE,110,13.0,14.0,-999,-99.99,,,-99.99,,2013-03-31 21:54:00,
2013-03-31 18:00:00,75.0,-99.9,30.04,East,100,14.0,15.0,-999,-99.99,,,-99.99,,2013-03-31 22:00:00,
2013-03-31 18:24:00,75.0,-99.9,30.04,East,100,14.0,15.0,-999,-99.99,,,-99.99,,2013-03-31 22:24:00,
2013-03-31 18:34:00,75.0,-99.9,30.04,East,100,14.0,15.0,-999,-99.99,,,-99.99,,2013-03-31 22:34:00,
2013-03-31 18:43:00,75.0,-99.9,30.04,East,100,14.0,15.0,-999,-99.99,,,-99.99,,2013-03-31 22:43:00,
2013-03-31 18:53:00,75.0,-99.9,30.04,East,100,14.0,15.0,-999,-99.99,,,-99.99,,2013-03-31 22:53:00,